sensor_id;sensor_type;location;lat;lon;timestamp;P1;durP1;ratioP1;P2;durP2;ratioP2
2326;SDS011;1174;51.588;7.328;2022-08-19T00:01:19;6.70;;;5.67;;
2326;SDS011;1174;51.588;7.328;2022-08-19T00:03:47;9.43;;;5.60;;
2326;SDS011;1174;51.588;7.328;2022-08-19T00:06:14;6.27;;;5.67;;
2326;SDS011;1174;51.588;7.328;2022-08-19T00:08:42;7.80;;;5.70;;
2326;SDS011;1174;51.588;7.328;2022-08-19T00:11:09;6.37;;;5.77;;
2326;SDS011;1174;51.588;7.328;2022-08-19T00:13:37;6.13;;;5.33;;
2326;SDS011;1174;51.588;7.328;2022-08-19T00:16:04;9.23;;;5.50;;
2326;SDS011;1174;51.588;7.328;2022-08-19T00:18:32;5.53;;;4.93;;
2326;SDS011;1174;51.588;7.328;2022-08-19T00:20:59;8.90;;;6.10;;
2326;SDS011;1174;51.588;7.328;2022-08-19T00:23:27;6.80;;;5.73;;
2326;SDS011;1174;51.588;7.328;2022-08-19T00:25:55;5.90;;;5.23;;
2326;SDS011;1174;51.588;7.328;2022-08-19T00:28:22;11.77;;;8.10;;
2326;SDS011;1174;51.588;7.328;2022-08-19T00:30:49;7.53;;;5.97;;
2326;SDS011;1174;51.588;7.328;2022-08-19T00:33:18;5.80;;;5.10;;
2326;SDS011;1174;51.588;7.328;2022-08-19T00:35:45;6.03;;;4.37;;
2326;SDS011;1174;51.588;7.328;2022-08-19T00:38:11;5.33;;;4.83;;
2326;SDS011;1174;51.588;7.328;2022-08-19T00:40:38;8.40;;;5.07;;
2326;SDS011;1174;51.588;7.328;2022-08-19T00:43:10;6.13;;;4.70;;
2326;SDS011;1174;51.588;7.328;2022-08-19T00:45:39;6.87;;;6.17;;
2326;SDS011;1174;51.588;7.328;2022-08-19T00:48:08;8.97;;;5.57;;
2326;SDS011;1174;51.588;7.328;2022-08-19T00:50:36;6.73;;;6.10;;
2326;SDS011;1174;51.588;7.328;2022-08-19T00:53:05;9.70;;;5.53;;
2326;SDS011;1174;51.588;7.328;2022-08-19T00:55:33;7.57;;;6.00;;
2326;SDS011;1174;51.588;7.328;2022-08-19T00:58:01;8.33;;;6.10;;
2326;SDS011;1174;51.588;7.328;2022-08-19T01:00:33;8.73;;;7.03;;
2326;SDS011;1174;51.588;7.328;2022-08-19T01:03:02;7.23;;;5.47;;
2326;SDS011;1174;51.588;7.328;2022-08-19T01:05:30;7.70;;;5.40;;
2326;SDS011;1174;51.588;7.328;2022-08-19T01:07:59;6.60;;;5.50;;
2326;SDS011;1174;51.588;7.328;2022-08-19T01:10:29;7.20;;;5.70;;
2326;SDS011;1174;51.588;7.328;2022-08-19T01:12:58;6.60;;;5.47;;
2326;SDS011;1174;51.588;7.328;2022-08-19T01:15:29;7.30;;;5.60;;
2326;SDS011;1174;51.588;7.328;2022-08-19T01:18:00;8.80;;;6.43;;
2326;SDS011;1174;51.588;7.328;2022-08-19T01:20:30;8.40;;;5.87;;
2326;SDS011;1174;51.588;7.328;2022-08-19T01:23:01;8.40;;;5.97;;
2326;SDS011;1174;51.588;7.328;2022-08-19T01:25:29;10.63;;;5.00;;
2326;SDS011;1174;51.588;7.328;2022-08-19T01:27:58;14.33;;;6.73;;
2326;SDS011;1174;51.588;7.328;2022-08-19T01:30:26;7.07;;;5.97;;
2326;SDS011;1174;51.588;7.328;2022-08-19T01:32:58;8.73;;;6.83;;
2326;SDS011;1174;51.588;7.328;2022-08-19T01:35:27;7.33;;;6.10;;
2326;SDS011;1174;51.588;7.328;2022-08-19T01:37:56;7.70;;;5.90;;
2326;SDS011;1174;51.588;7.328;2022-08-19T01:40:27;11.80;;;6.40;;
2326;SDS011;1174;51.588;7.328;2022-08-19T01:42:55;9.90;;;5.40;;
2326;SDS011;1174;51.588;7.328;2022-08-19T01:45:23;6.10;;;5.37;;
2326;SDS011;1174;51.588;7.328;2022-08-19T01:47:52;6.23;;;5.27;;
2326;SDS011;1174;51.588;7.328;2022-08-19T01:50:19;5.90;;;4.90;;
2326;SDS011;1174;51.588;7.328;2022-08-19T01:52:46;6.77;;;5.43;;
2326;SDS011;1174;51.588;7.328;2022-08-19T01:55:14;6.73;;;5.33;;
2326;SDS011;1174;51.588;7.328;2022-08-19T01:57:48;6.53;;;5.87;;
2326;SDS011;1174;51.588;7.328;2022-08-19T02:00:20;7.20;;;5.60;;
2326;SDS011;1174;51.588;7.328;2022-08-19T02:02:49;6.37;;;5.57;;
2326;SDS011;1174;51.588;7.328;2022-08-19T02:05:16;6.80;;;5.30;;
2326;SDS011;1174;51.588;7.328;2022-08-19T02:07:44;6.23;;;5.33;;
2326;SDS011;1174;51.588;7.328;2022-08-19T02:10:12;6.40;;;5.80;;
2326;SDS011;1174;51.588;7.328;2022-08-19T02:12:42;6.87;;;5.87;;
2326;SDS011;1174;51.588;7.328;2022-08-19T02:15:10;8.80;;;5.90;;
2326;SDS011;1174;51.588;7.328;2022-08-19T02:17:37;7.13;;;5.13;;
2326;SDS011;1174;51.588;7.328;2022-08-19T02:20:05;9.13;;;5.83;;
2326;SDS011;1174;51.588;7.328;2022-08-19T02:22:33;6.80;;;5.33;;
2326;SDS011;1174;51.588;7.328;2022-08-19T02:25:06;8.10;;;5.73;;
2326;SDS011;1174;51.588;7.328;2022-08-19T02:27:35;9.30;;;6.10;;
2326;SDS011;1174;51.588;7.328;2022-08-19T02:30:03;6.30;;;4.70;;
2326;SDS011;1174;51.588;7.328;2022-08-19T02:32:32;6.30;;;5.80;;
2326;SDS011;1174;51.588;7.328;2022-08-19T02:34:59;6.70;;;5.57;;
2326;SDS011;1174;51.588;7.328;2022-08-19T02:37:26;6.80;;;5.27;;
2326;SDS011;1174;51.588;7.328;2022-08-19T02:43:33;8.20;;;5.80;;
2326;SDS011;1174;51.588;7.328;2022-08-19T02:46:01;11.33;;;6.17;;
2326;SDS011;1174;51.588;7.328;2022-08-19T02:48:29;6.00;;;5.40;;
2326;SDS011;1174;51.588;7.328;2022-08-19T02:50:59;6.00;;;5.17;;
2326;SDS011;1174;51.588;7.328;2022-08-19T02:53:26;6.27;;;5.67;;
2326;SDS011;1174;51.588;7.328;2022-08-19T02:55:54;9.77;;;6.27;;
2326;SDS011;1174;51.588;7.328;2022-08-19T02:58:21;5.30;;;4.13;;
2326;SDS011;1174;51.588;7.328;2022-08-19T03:00:49;6.30;;;5.70;;
2326;SDS011;1174;51.588;7.328;2022-08-19T03:03:17;13.73;;;6.10;;
2326;SDS011;1174;51.588;7.328;2022-08-19T03:05:46;6.13;;;4.83;;
2326;SDS011;1174;51.588;7.328;2022-08-19T03:08:14;5.13;;;4.47;;
2326;SDS011;1174;51.588;7.328;2022-08-19T03:10:42;7.60;;;6.27;;
2326;SDS011;1174;51.588;7.328;2022-08-19T03:13:10;8.90;;;6.17;;
2326;SDS011;1174;51.588;7.328;2022-08-19T03:15:39;7.20;;;4.77;;
2326;SDS011;1174;51.588;7.328;2022-08-19T03:18:07;13.47;;;6.63;;
2326;SDS011;1174;51.588;7.328;2022-08-19T03:20:34;8.10;;;6.17;;
2326;SDS011;1174;51.588;7.328;2022-08-19T03:23:08;8.30;;;6.00;;
2326;SDS011;1174;51.588;7.328;2022-08-19T03:25:36;8.37;;;7.40;;
2326;SDS011;1174;51.588;7.328;2022-08-19T03:28:05;12.10;;;7.07;;
2326;SDS011;1174;51.588;7.328;2022-08-19T03:30:32;23.33;;;9.07;;
2326;SDS011;1174;51.588;7.328;2022-08-19T03:32:59;6.90;;;5.90;;
2326;SDS011;1174;51.588;7.328;2022-08-19T03:35:26;5.83;;;4.37;;
2326;SDS011;1174;51.588;7.328;2022-08-19T03:37:53;9.03;;;5.40;;
2326;SDS011;1174;51.588;7.328;2022-08-19T03:40:23;8.27;;;6.33;;
2326;SDS011;1174;51.588;7.328;2022-08-19T03:42:50;9.97;;;5.67;;
2326;SDS011;1174;51.588;7.328;2022-08-19T03:45:17;12.67;;;7.90;;
2326;SDS011;1174;51.588;7.328;2022-08-19T03:47:44;12.60;;;6.63;;
2326;SDS011;1174;51.588;7.328;2022-08-19T03:50:11;11.40;;;7.07;;
2326;SDS011;1174;51.588;7.328;2022-08-19T03:52:38;8.50;;;6.03;;
2326;SDS011;1174;51.588;7.328;2022-08-19T03:55:06;17.43;;;7.00;;
2326;SDS011;1174;51.588;7.328;2022-08-19T03:57:34;15.20;;;8.67;;
2326;SDS011;1174;51.588;7.328;2022-08-19T04:00:03;10.60;;;6.80;;
2326;SDS011;1174;51.588;7.328;2022-08-19T04:02:31;10.03;;;6.73;;
2326;SDS011;1174;51.588;7.328;2022-08-19T04:04:58;12.17;;;7.73;;
2326;SDS011;1174;51.588;7.328;2022-08-19T04:07:25;21.00;;;7.93;;
2326;SDS011;1174;51.588;7.328;2022-08-19T04:09:52;12.87;;;7.73;;
2326;SDS011;1174;51.588;7.328;2022-08-19T04:12:19;13.17;;;6.90;;
2326;SDS011;1174;51.588;7.328;2022-08-19T04:14:47;17.03;;;7.73;;
2326;SDS011;1174;51.588;7.328;2022-08-19T04:17:14;10.07;;;6.80;;
2326;SDS011;1174;51.588;7.328;2022-08-19T04:19:41;13.53;;;7.03;;
2326;SDS011;1174;51.588;7.328;2022-08-19T04:22:09;24.20;;;8.40;;
2326;SDS011;1174;51.588;7.328;2022-08-19T04:24:37;20.70;;;7.60;;
2326;SDS011;1174;51.588;7.328;2022-08-19T04:27:04;26.40;;;9.47;;
2326;SDS011;1174;51.588;7.328;2022-08-19T04:29:31;11.23;;;7.97;;
2326;SDS011;1174;51.588;7.328;2022-08-19T04:32:00;24.23;;;6.77;;
2326;SDS011;1174;51.588;7.328;2022-08-19T04:34:28;11.00;;;6.00;;
2326;SDS011;1174;51.588;7.328;2022-08-19T04:36:56;13.63;;;6.50;;
2326;SDS011;1174;51.588;7.328;2022-08-19T04:39:25;13.83;;;7.60;;
2326;SDS011;1174;51.588;7.328;2022-08-19T04:42:15;11.10;;;6.60;;
2326;SDS011;1174;51.588;7.328;2022-08-19T04:45:00;10.57;;;7.87;;
2326;SDS011;1174;51.588;7.328;2022-08-19T04:47:29;13.00;;;7.40;;
2326;SDS011;1174;51.588;7.328;2022-08-19T04:49:58;13.10;;;8.77;;
2326;SDS011;1174;51.588;7.328;2022-08-19T04:52:25;8.03;;;6.70;;
2326;SDS011;1174;51.588;7.328;2022-08-19T04:54:51;13.77;;;7.10;;
2326;SDS011;1174;51.588;7.328;2022-08-19T04:57:20;17.03;;;9.17;;
2326;SDS011;1174;51.588;7.328;2022-08-19T04:59:47;27.83;;;9.33;;
2326;SDS011;1174;51.588;7.328;2022-08-19T05:02:14;30.37;;;11.10;;
2326;SDS011;1174;51.588;7.328;2022-08-19T05:04:42;27.37;;;10.83;;
2326;SDS011;1174;51.588;7.328;2022-08-19T05:07:09;23.77;;;9.20;;
2326;SDS011;1174;51.588;7.328;2022-08-19T05:09:36;44.67;;;11.10;;
2326;SDS011;1174;51.588;7.328;2022-08-19T05:12:04;20.00;;;9.23;;
2326;SDS011;1174;51.588;7.328;2022-08-19T05:14:31;30.77;;;9.70;;
2326;SDS011;1174;51.588;7.328;2022-08-19T05:17:00;24.43;;;10.63;;
2326;SDS011;1174;51.588;7.328;2022-08-19T05:19:27;19.23;;;9.03;;
2326;SDS011;1174;51.588;7.328;2022-08-19T05:22:12;31.73;;;10.40;;
2326;SDS011;1174;51.588;7.328;2022-08-19T05:24:56;23.57;;;10.47;;
2326;SDS011;1174;51.588;7.328;2022-08-19T05:27:23;19.50;;;8.67;;
2326;SDS011;1174;51.588;7.328;2022-08-19T05:29:50;23.47;;;10.50;;
2326;SDS011;1174;51.588;7.328;2022-08-19T05:32:17;26.50;;;9.40;;
2326;SDS011;1174;51.588;7.328;2022-08-19T05:34:44;25.87;;;10.10;;
2326;SDS011;1174;51.588;7.328;2022-08-19T05:37:12;23.70;;;11.77;;
2326;SDS011;1174;51.588;7.328;2022-08-19T05:39:39;28.43;;;11.53;;
2326;SDS011;1174;51.588;7.328;2022-08-19T05:42:07;36.73;;;13.43;;
2326;SDS011;1174;51.588;7.328;2022-08-19T05:44:37;18.27;;;9.97;;
2326;SDS011;1174;51.588;7.328;2022-08-19T05:47:07;17.20;;;9.63;;
2326;SDS011;1174;51.588;7.328;2022-08-19T05:49:34;18.97;;;11.63;;
2326;SDS011;1174;51.588;7.328;2022-08-19T05:52:02;19.73;;;9.67;;
2326;SDS011;1174;51.588;7.328;2022-08-19T05:54:31;16.43;;;8.47;;
2326;SDS011;1174;51.588;7.328;2022-08-19T05:57:00;13.83;;;8.90;;
2326;SDS011;1174;51.588;7.328;2022-08-19T05:59:28;15.60;;;8.50;;
2326;SDS011;1174;51.588;7.328;2022-08-19T06:01:55;24.30;;;9.50;;
2326;SDS011;1174;51.588;7.328;2022-08-19T06:04:22;19.70;;;9.83;;
2326;SDS011;1174;51.588;7.328;2022-08-19T06:06:51;22.77;;;9.33;;
2326;SDS011;1174;51.588;7.328;2022-08-19T06:09:19;19.90;;;8.80;;
2326;SDS011;1174;51.588;7.328;2022-08-19T06:11:49;18.67;;;10.90;;
2326;SDS011;1174;51.588;7.328;2022-08-19T06:14:19;13.10;;;10.87;;
2326;SDS011;1174;51.588;7.328;2022-08-19T06:16:48;18.20;;;11.30;;
2326;SDS011;1174;51.588;7.328;2022-08-19T06:19:18;18.90;;;10.93;;
2326;SDS011;1174;51.588;7.328;2022-08-19T06:21:47;25.33;;;11.60;;
2326;SDS011;1174;51.588;7.328;2022-08-19T06:24:17;25.87;;;11.40;;
2326;SDS011;1174;51.588;7.328;2022-08-19T06:26:46;16.23;;;11.67;;
2326;SDS011;1174;51.588;7.328;2022-08-19T06:29:16;22.87;;;12.20;;
2326;SDS011;1174;51.588;7.328;2022-08-19T06:31:44;20.10;;;12.20;;
2326;SDS011;1174;51.588;7.328;2022-08-19T06:34:14;18.90;;;12.30;;
2326;SDS011;1174;51.588;7.328;2022-08-19T06:36:43;16.43;;;12.40;;
2326;SDS011;1174;51.588;7.328;2022-08-19T06:39:12;21.50;;;12.23;;
2326;SDS011;1174;51.588;7.328;2022-08-19T06:41:42;16.40;;;12.10;;
2326;SDS011;1174;51.588;7.328;2022-08-19T06:44:14;21.10;;;11.43;;
2326;SDS011;1174;51.588;7.328;2022-08-19T06:46:41;16.47;;;11.53;;
2326;SDS011;1174;51.588;7.328;2022-08-19T06:49:08;17.90;;;12.03;;
2326;SDS011;1174;51.588;7.328;2022-08-19T06:51:38;18.50;;;10.40;;
2326;SDS011;1174;51.588;7.328;2022-08-19T06:54:05;12.90;;;11.30;;
2326;SDS011;1174;51.588;7.328;2022-08-19T06:56:32;18.93;;;11.00;;
2326;SDS011;1174;51.588;7.328;2022-08-19T06:59:00;14.67;;;10.20;;
2326;SDS011;1174;51.588;7.328;2022-08-19T07:01:29;22.27;;;13.47;;
2326;SDS011;1174;51.588;7.328;2022-08-19T07:03:55;14.77;;;11.50;;
2326;SDS011;1174;51.588;7.328;2022-08-19T07:06:22;20.83;;;13.00;;
2326;SDS011;1174;51.588;7.328;2022-08-19T07:08:50;17.10;;;12.10;;
2326;SDS011;1174;51.588;7.328;2022-08-19T07:11:17;21.17;;;13.43;;
2326;SDS011;1174;51.588;7.328;2022-08-19T07:13:45;16.50;;;10.67;;
2326;SDS011;1174;51.588;7.328;2022-08-19T07:16:15;13.67;;;11.73;;
2326;SDS011;1174;51.588;7.328;2022-08-19T07:18:47;17.93;;;10.73;;
2326;SDS011;1174;51.588;7.328;2022-08-19T07:21:15;19.00;;;12.70;;
2326;SDS011;1174;51.588;7.328;2022-08-19T07:23:44;18.30;;;11.67;;
2326;SDS011;1174;51.588;7.328;2022-08-19T07:26:12;14.90;;;10.37;;
2326;SDS011;1174;51.588;7.328;2022-08-19T07:28:41;17.17;;;9.87;;
2326;SDS011;1174;51.588;7.328;2022-08-19T07:31:10;10.37;;;9.20;;
2326;SDS011;1174;51.588;7.328;2022-08-19T07:33:38;14.43;;;10.33;;
2326;SDS011;1174;51.588;7.328;2022-08-19T07:36:07;16.63;;;10.30;;
2326;SDS011;1174;51.588;7.328;2022-08-19T07:38:36;15.27;;;9.30;;
2326;SDS011;1174;51.588;7.328;2022-08-19T07:41:05;10.37;;;8.23;;
2326;SDS011;1174;51.588;7.328;2022-08-19T07:43:32;12.17;;;9.33;;
2326;SDS011;1174;51.588;7.328;2022-08-19T07:45:59;12.33;;;8.30;;
2326;SDS011;1174;51.588;7.328;2022-08-19T07:48:26;13.23;;;8.80;;
2326;SDS011;1174;51.588;7.328;2022-08-19T07:50:54;10.57;;;6.67;;
2326;SDS011;1174;51.588;7.328;2022-08-19T07:53:25;9.60;;;7.17;;
2326;SDS011;1174;51.588;7.328;2022-08-19T07:55:52;8.77;;;6.90;;
2326;SDS011;1174;51.588;7.328;2022-08-19T07:58:20;9.93;;;6.70;;
2326;SDS011;1174;51.588;7.328;2022-08-19T08:00:50;10.33;;;7.10;;
2326;SDS011;1174;51.588;7.328;2022-08-19T08:03:18;10.20;;;6.77;;
2326;SDS011;1174;51.588;7.328;2022-08-19T08:06:07;10.93;;;7.60;;
2326;SDS011;1174;51.588;7.328;2022-08-19T08:08:53;7.80;;;6.87;;
2326;SDS011;1174;51.588;7.328;2022-08-19T08:11:43;15.90;;;8.83;;
2326;SDS011;1174;51.588;7.328;2022-08-19T08:14:14;9.03;;;8.00;;
2326;SDS011;1174;51.588;7.328;2022-08-19T08:16:42;11.03;;;7.23;;
2326;SDS011;1174;51.588;7.328;2022-08-19T08:19:10;8.90;;;7.90;;
2326;SDS011;1174;51.588;7.328;2022-08-19T08:21:39;17.33;;;9.47;;
2326;SDS011;1174;51.588;7.328;2022-08-19T08:24:09;10.43;;;7.40;;
2326;SDS011;1174;51.588;7.328;2022-08-19T08:26:37;14.13;;;8.10;;
2326;SDS011;1174;51.588;7.328;2022-08-19T08:29:04;9.30;;;8.30;;
2326;SDS011;1174;51.588;7.328;2022-08-19T08:31:32;12.83;;;8.73;;
2326;SDS011;1174;51.588;7.328;2022-08-19T08:33:59;10.43;;;9.20;;
2326;SDS011;1174;51.588;7.328;2022-08-19T08:36:26;8.90;;;8.00;;
2326;SDS011;1174;51.588;7.328;2022-08-19T08:38:53;10.90;;;9.23;;
2326;SDS011;1174;51.588;7.328;2022-08-19T08:41:25;9.97;;;7.50;;
2326;SDS011;1174;51.588;7.328;2022-08-19T08:43:57;13.30;;;11.20;;
2326;SDS011;1174;51.588;7.328;2022-08-19T08:46:27;12.93;;;9.10;;
2326;SDS011;1174;51.588;7.328;2022-08-19T08:49:04;12.97;;;9.87;;
2326;SDS011;1174;51.588;7.328;2022-08-19T08:51:40;18.73;;;9.63;;
2326;SDS011;1174;51.588;7.328;2022-08-19T08:54:10;14.10;;;9.33;;
2326;SDS011;1174;51.588;7.328;2022-08-19T08:56:41;12.97;;;9.63;;
2326;SDS011;1174;51.588;7.328;2022-08-19T08:59:10;12.50;;;9.97;;
2326;SDS011;1174;51.588;7.328;2022-08-19T09:01:42;17.00;;;10.00;;
2326;SDS011;1174;51.588;7.328;2022-08-19T09:04:09;21.63;;;11.20;;
2326;SDS011;1174;51.588;7.328;2022-08-19T09:06:39;10.50;;;9.40;;
2326;SDS011;1174;51.588;7.328;2022-08-19T09:09:17;8.97;;;7.30;;
2326;SDS011;1174;51.588;7.328;2022-08-19T09:11:54;9.53;;;8.60;;
2326;SDS011;1174;51.588;7.328;2022-08-19T09:14:33;8.20;;;6.80;;
2326;SDS011;1174;51.588;7.328;2022-08-19T09:17:06;8.37;;;6.80;;
2326;SDS011;1174;51.588;7.328;2022-08-19T09:19:34;8.70;;;7.80;;
2326;SDS011;1174;51.588;7.328;2022-08-19T09:22:02;11.07;;;7.30;;
2326;SDS011;1174;51.588;7.328;2022-08-19T09:24:30;11.63;;;7.83;;
2326;SDS011;1174;51.588;7.328;2022-08-19T09:26:58;10.57;;;9.47;;
2326;SDS011;1174;51.588;7.328;2022-08-19T09:29:25;8.70;;;7.80;;
2326;SDS011;1174;51.588;7.328;2022-08-19T09:31:52;11.83;;;9.60;;
2326;SDS011;1174;51.588;7.328;2022-08-19T09:34:19;18.33;;;8.80;;
2326;SDS011;1174;51.588;7.328;2022-08-19T09:36:47;8.20;;;7.50;;
2326;SDS011;1174;51.588;7.328;2022-08-19T09:39:18;10.10;;;8.70;;
2326;SDS011;1174;51.588;7.328;2022-08-19T09:41:45;9.70;;;8.80;;
2326;SDS011;1174;51.588;7.328;2022-08-19T09:44:13;9.93;;;7.87;;
2326;SDS011;1174;51.588;7.328;2022-08-19T09:46:40;8.93;;;7.60;;
2326;SDS011;1174;51.588;7.328;2022-08-19T09:49:06;6.77;;;6.10;;
2326;SDS011;1174;51.588;7.328;2022-08-19T09:51:33;13.40;;;9.00;;
2326;SDS011;1174;51.588;7.328;2022-08-19T09:54:01;10.93;;;9.73;;
2326;SDS011;1174;51.588;7.328;2022-08-19T09:56:29;9.83;;;8.83;;
2326;SDS011;1174;51.588;7.328;2022-08-19T09:58:57;10.20;;;8.17;;
2326;SDS011;1174;51.588;7.328;2022-08-19T10:01:27;9.30;;;8.27;;
2326;SDS011;1174;51.588;7.328;2022-08-19T10:03:56;12.93;;;8.70;;
2326;SDS011;1174;51.588;7.328;2022-08-19T10:06:26;13.20;;;7.43;;
2326;SDS011;1174;51.588;7.328;2022-08-19T10:08:57;8.97;;;8.07;;
2326;SDS011;1174;51.588;7.328;2022-08-19T10:11:24;10.27;;;8.53;;
2326;SDS011;1174;51.588;7.328;2022-08-19T10:13:53;9.83;;;8.20;;
2326;SDS011;1174;51.588;7.328;2022-08-19T10:16:21;8.97;;;7.90;;
2326;SDS011;1174;51.588;7.328;2022-08-19T10:18:50;8.47;;;7.27;;
2326;SDS011;1174;51.588;7.328;2022-08-19T10:21:18;9.70;;;8.60;;
2326;SDS011;1174;51.588;7.328;2022-08-19T10:23:49;10.60;;;8.77;;
2326;SDS011;1174;51.588;7.328;2022-08-19T10:26:20;11.20;;;8.90;;
2326;SDS011;1174;51.588;7.328;2022-08-19T10:28:48;11.60;;;8.83;;
2326;SDS011;1174;51.588;7.328;2022-08-19T10:31:17;10.13;;;9.13;;
2326;SDS011;1174;51.588;7.328;2022-08-19T10:33:45;9.70;;;8.80;;
2326;SDS011;1174;51.588;7.328;2022-08-19T10:36:15;9.60;;;7.40;;
2326;SDS011;1174;51.588;7.328;2022-08-19T10:38:44;9.37;;;7.97;;
2326;SDS011;1174;51.588;7.328;2022-08-19T10:41:16;12.93;;;9.60;;
2326;SDS011;1174;51.588;7.328;2022-08-19T10:43:44;11.10;;;9.90;;
2326;SDS011;1174;51.588;7.328;2022-08-19T10:46:12;14.10;;;10.37;;
2326;SDS011;1174;51.588;7.328;2022-08-19T10:48:40;10.00;;;9.00;;
2326;SDS011;1174;51.588;7.328;2022-08-19T10:51:08;9.23;;;8.33;;
2326;SDS011;1174;51.588;7.328;2022-08-19T10:53:55;11.10;;;9.80;;
2326;SDS011;1174;51.588;7.328;2022-08-19T10:56:23;11.50;;;8.70;;
2326;SDS011;1174;51.588;7.328;2022-08-19T10:59:08;8.60;;;7.67;;
2326;SDS011;1174;51.588;7.328;2022-08-19T11:01:38;9.33;;;8.33;;
2326;SDS011;1174;51.588;7.328;2022-08-19T11:04:06;8.20;;;6.83;;
2326;SDS011;1174;51.588;7.328;2022-08-19T11:06:36;9.10;;;6.17;;
2326;SDS011;1174;51.588;7.328;2022-08-19T11:09:05;8.47;;;5.87;;
2326;SDS011;1174;51.588;7.328;2022-08-19T11:11:32;9.87;;;7.00;;
2326;SDS011;1174;51.588;7.328;2022-08-19T11:14:04;12.03;;;7.20;;
2326;SDS011;1174;51.588;7.328;2022-08-19T11:16:31;8.47;;;6.87;;
2326;SDS011;1174;51.588;7.328;2022-08-19T11:18:58;8.30;;;7.50;;
2326;SDS011;1174;51.588;7.328;2022-08-19T11:21:26;8.20;;;7.10;;
2326;SDS011;1174;51.588;7.328;2022-08-19T11:23:56;9.63;;;6.00;;
2326;SDS011;1174;51.588;7.328;2022-08-19T11:26:26;10.13;;;6.47;;
2326;SDS011;1174;51.588;7.328;2022-08-19T11:28:54;10.60;;;6.43;;
2326;SDS011;1174;51.588;7.328;2022-08-19T11:31:23;8.20;;;6.43;;
2326;SDS011;1174;51.588;7.328;2022-08-19T11:33:51;7.07;;;6.17;;
2326;SDS011;1174;51.588;7.328;2022-08-19T11:36:19;5.90;;;5.40;;
2326;SDS011;1174;51.588;7.328;2022-08-19T11:38:46;8.27;;;5.23;;
2326;SDS011;1174;51.588;7.328;2022-08-19T11:41:14;6.97;;;6.33;;
2326;SDS011;1174;51.588;7.328;2022-08-19T11:43:44;8.97;;;7.03;;
2326;SDS011;1174;51.588;7.328;2022-08-19T11:46:13;9.83;;;8.20;;
2326;SDS011;1174;51.588;7.328;2022-08-19T11:48:41;12.00;;;8.27;;
2326;SDS011;1174;51.588;7.328;2022-08-19T11:51:08;8.20;;;7.30;;
2326;SDS011;1174;51.588;7.328;2022-08-19T11:53:37;11.10;;;7.57;;
2326;SDS011;1174;51.588;7.328;2022-08-19T11:56:05;16.10;;;7.57;;
2326;SDS011;1174;51.588;7.328;2022-08-19T11:58:33;10.03;;;9.10;;
2326;SDS011;1174;51.588;7.328;2022-08-19T12:01:04;12.67;;;8.67;;
2326;SDS011;1174;51.588;7.328;2022-08-19T12:03:32;7.90;;;6.63;;
2326;SDS011;1174;51.588;7.328;2022-08-19T12:06:02;8.80;;;7.70;;
2326;SDS011;1174;51.588;7.328;2022-08-19T12:08:30;9.20;;;8.30;;
2326;SDS011;1174;51.588;7.328;2022-08-19T12:10:57;9.00;;;8.20;;
2326;SDS011;1174;51.588;7.328;2022-08-19T12:13:25;9.17;;;7.97;;
2326;SDS011;1174;51.588;7.328;2022-08-19T12:15:53;7.80;;;7.10;;
2326;SDS011;1174;51.588;7.328;2022-08-19T12:18:21;11.60;;;9.67;;
2326;SDS011;1174;51.588;7.328;2022-08-19T12:20:50;9.80;;;8.80;;
2326;SDS011;1174;51.588;7.328;2022-08-19T12:23:17;8.00;;;7.20;;
2326;SDS011;1174;51.588;7.328;2022-08-19T12:25:45;10.00;;;6.73;;
2326;SDS011;1174;51.588;7.328;2022-08-19T12:28:15;16.43;;;8.07;;
2326;SDS011;1174;51.588;7.328;2022-08-19T12:30:42;8.73;;;7.83;;
2326;SDS011;1174;51.588;7.328;2022-08-19T12:33:09;7.60;;;6.93;;
2326;SDS011;1174;51.588;7.328;2022-08-19T12:35:40;8.70;;;7.87;;
2326;SDS011;1174;51.588;7.328;2022-08-19T12:38:07;9.00;;;8.10;;
2326;SDS011;1174;51.588;7.328;2022-08-19T12:40:34;9.10;;;8.20;;
2326;SDS011;1174;51.588;7.328;2022-08-19T12:43:01;11.27;;;8.57;;
2326;SDS011;1174;51.588;7.328;2022-08-19T12:45:28;8.30;;;7.50;;
2326;SDS011;1174;51.588;7.328;2022-08-19T12:47:54;11.30;;;8.97;;
2326;SDS011;1174;51.588;7.328;2022-08-19T12:50:21;8.70;;;7.70;;
2326;SDS011;1174;51.588;7.328;2022-08-19T12:52:49;7.00;;;6.40;;
2326;SDS011;1174;51.588;7.328;2022-08-19T12:55:17;7.30;;;5.97;;
2326;SDS011;1174;51.588;7.328;2022-08-19T12:57:44;6.50;;;5.90;;
2326;SDS011;1174;51.588;7.328;2022-08-19T13:00:14;7.07;;;5.70;;
2326;SDS011;1174;51.588;7.328;2022-08-19T13:02:43;8.93;;;5.90;;
2326;SDS011;1174;51.588;7.328;2022-08-19T13:05:13;5.50;;;5.10;;
2326;SDS011;1174;51.588;7.328;2022-08-19T13:07:42;6.00;;;5.40;;
2326;SDS011;1174;51.588;7.328;2022-08-19T13:10:12;6.43;;;5.83;;
2326;SDS011;1174;51.588;7.328;2022-08-19T13:12:41;7.00;;;6.20;;
2326;SDS011;1174;51.588;7.328;2022-08-19T13:15:08;6.97;;;6.07;;
2326;SDS011;1174;51.588;7.328;2022-08-19T13:17:35;8.43;;;7.70;;
2326;SDS011;1174;51.588;7.328;2022-08-19T13:20:03;7.63;;;6.93;;
2326;SDS011;1174;51.588;7.328;2022-08-19T13:22:32;7.47;;;6.70;;
2326;SDS011;1174;51.588;7.328;2022-08-19T13:25:00;8.93;;;8.03;;
2326;SDS011;1174;51.588;7.328;2022-08-19T13:27:29;10.10;;;8.33;;
2326;SDS011;1174;51.588;7.328;2022-08-19T13:29:56;8.10;;;7.40;;
2326;SDS011;1174;51.588;7.328;2022-08-19T13:32:41;10.07;;;7.50;;
2326;SDS011;1174;51.588;7.328;2022-08-19T13:35:25;7.53;;;6.80;;
2326;SDS011;1174;51.588;7.328;2022-08-19T13:37:53;8.03;;;7.40;;
2326;SDS011;1174;51.588;7.328;2022-08-19T13:40:21;7.93;;;7.23;;
2326;SDS011;1174;51.588;7.328;2022-08-19T13:42:53;8.47;;;7.33;;
2326;SDS011;1174;51.588;7.328;2022-08-19T13:45:22;8.77;;;7.90;;
2326;SDS011;1174;51.588;7.328;2022-08-19T13:47:52;7.57;;;6.80;;
2326;SDS011;1174;51.588;7.328;2022-08-19T13:50:22;8.10;;;7.30;;
2326;SDS011;1174;51.588;7.328;2022-08-19T13:52:50;9.03;;;5.80;;
2326;SDS011;1174;51.588;7.328;2022-08-19T13:55:18;16.07;;;7.77;;
2326;SDS011;1174;51.588;7.328;2022-08-19T13:57:46;7.97;;;6.73;;
2326;SDS011;1174;51.588;7.328;2022-08-19T14:00:18;13.00;;;7.03;;
2326;SDS011;1174;51.588;7.328;2022-08-19T14:02:45;6.70;;;6.10;;
2326;SDS011;1174;51.588;7.328;2022-08-19T14:05:14;8.70;;;5.90;;
2326;SDS011;1174;51.588;7.328;2022-08-19T14:07:42;7.13;;;6.20;;
2326;SDS011;1174;51.588;7.328;2022-08-19T14:10:10;6.40;;;5.80;;
2326;SDS011;1174;51.588;7.328;2022-08-19T14:12:38;8.73;;;5.50;;
2326;SDS011;1174;51.588;7.328;2022-08-19T14:15:06;7.90;;;4.97;;
2326;SDS011;1174;51.588;7.328;2022-08-19T14:17:38;4.40;;;4.00;;
2326;SDS011;1174;51.588;7.328;2022-08-19T14:20:05;7.47;;;4.50;;
2326;SDS011;1174;51.588;7.328;2022-08-19T14:22:34;4.80;;;4.20;;
2326;SDS011;1174;51.588;7.328;2022-08-19T14:25:02;5.93;;;4.83;;
2326;SDS011;1174;51.588;7.328;2022-08-19T14:27:30;7.70;;;5.37;;
2326;SDS011;1174;51.588;7.328;2022-08-19T14:29:58;4.70;;;4.07;;
2326;SDS011;1174;51.588;7.328;2022-08-19T14:32:25;4.50;;;4.10;;
2326;SDS011;1174;51.588;7.328;2022-08-19T14:34:54;5.47;;;4.97;;
2326;SDS011;1174;51.588;7.328;2022-08-19T14:37:21;4.93;;;4.53;;
2326;SDS011;1174;51.588;7.328;2022-08-19T14:39:48;5.00;;;4.37;;
2326;SDS011;1174;51.588;7.328;2022-08-19T14:42:15;7.80;;;4.70;;
2326;SDS011;1174;51.588;7.328;2022-08-19T14:44:42;5.07;;;3.90;;
2326;SDS011;1174;51.588;7.328;2022-08-19T14:47:09;7.93;;;4.80;;
2326;SDS011;1174;51.588;7.328;2022-08-19T14:49:36;6.00;;;5.50;;
2326;SDS011;1174;51.588;7.328;2022-08-19T14:52:05;6.23;;;4.40;;
2326;SDS011;1174;51.588;7.328;2022-08-19T14:54:32;5.30;;;4.23;;
2326;SDS011;1174;51.588;7.328;2022-08-19T14:56:59;4.10;;;3.70;;
2326;SDS011;1174;51.588;7.328;2022-08-19T14:59:26;5.97;;;4.60;;
2326;SDS011;1174;51.588;7.328;2022-08-19T15:01:53;7.87;;;4.90;;
2326;SDS011;1174;51.588;7.328;2022-08-19T15:04:19;4.90;;;4.47;;
2326;SDS011;1174;51.588;7.328;2022-08-19T15:06:46;5.20;;;4.43;;
2326;SDS011;1174;51.588;7.328;2022-08-19T15:09:17;7.13;;;4.23;;
2326;SDS011;1174;51.588;7.328;2022-08-19T15:11:43;5.07;;;4.57;;
2326;SDS011;1174;51.588;7.328;2022-08-19T15:14:11;5.03;;;4.23;;
2326;SDS011;1174;51.588;7.328;2022-08-19T15:16:38;6.07;;;4.10;;
2326;SDS011;1174;51.588;7.328;2022-08-19T15:19:06;5.73;;;5.23;;
2326;SDS011;1174;51.588;7.328;2022-08-19T15:21:33;5.30;;;4.80;;